Time;durP1;ratioP1;P1;durP2;ratioP2;P2;SDS_P1;SDS_P2;PMS_P1;PMS_P2;Temp;Humidity;BMP_temperature;BMP_pressure;BME280_temperature;BME280_humidity;BME280_pressure;Samples;Min_cycle;Max_cycle;Signal;HPM_P1;HPM_P2
2022/03/12 00:00:27;;;;;;;3.80;1.48;;;25.10;99.90;;;;;;5026253;28;20033;-67
2022/03/12 00:02:54;;;;;;;7.45;2.40;;;25.30;99.90;;;;;;5025011;28;20034;-63
2022/03/12 00:05:21;;;;;;;7.47;2.90;;;25.40;99.90;;;;;;5023332;28;20184;-64
2022/03/12 00:07:51;;;;;;;6.47;2.95;;;25.40;99.90;;;;;;5023440;28;20485;-62
2022/03/12 00:10:21;;;;;;;5.05;1.65;;;25.60;99.90;;;;;;5017368;28;20025;-68
2022/03/12 00:12:48;;;;;;;6.22;1.67;;;25.90;99.90;;;;;;5028613;28;20033;-62
2022/03/12 00:15:16;;;;;;;6.03;2.30;;;26.10;99.90;;;;;;5028381;28;20172;-64
2022/03/12 00:17:45;;;;;;;4.10;1.58;;;26.20;99.90;;;;;;5027233;28;20025;-63
2022/03/12 00:20:19;;;;;;;5.18;1.75;;;26.60;99.90;;;;;;5022643;28;20030;-66
2022/03/12 00:22:51;;;;;;;6.40;1.38;;;26.90;99.90;;;;;;5027284;28;20025;-66
2022/03/12 00:25:22;;;;;;;5.57;1.73;;;27.10;99.90;;;;;;5026206;28;20048;-65
2022/03/12 00:27:50;;;;;;;5.13;2.15;;;27.40;99.90;;;;;;5028428;28;20495;-65
2022/03/12 00:30:21;;;;;;;9.05;6.47;;;27.80;99.90;;;;;;5028286;28;20049;-65
2022/03/12 00:32:49;;;;;;;6.72;1.92;;;28.00;99.90;;;;;;5024912;28;20061;-62
2022/03/12 00:35:17;;;;;;;4.40;1.95;;;28.40;99.90;;;;;;5025232;28;20037;-67
2022/03/12 00:37:44;;;;;;;3.80;1.70;;;28.10;99.20;;;;;;5025994;28;20574;-62
2022/03/12 00:40:13;;;;;;;7.30;2.08;;;27.80;99.90;;;;;;5024966;28;20061;-65
2022/03/12 00:42:40;;;;;;;5.95;2.00;;;27.80;99.90;;;;;;5026127;28;20033;-65
2022/03/12 00:45:07;;;;;;;4.68;1.23;;;28.00;99.90;;;;;;5027711;28;20026;-66
2022/03/12 00:47:34;;;;;;;8.20;1.90;;;28.40;99.30;;;;;;5025461;28;20033;-68
2022/03/12 00:50:01;;;;;;;4.82;1.70;;;28.10;99.30;;;;;;5024668;28;20114;-63
2022/03/12 00:52:29;;;;;;;3.50;1.92;;;27.90;99.40;;;;;;5032654;28;20135;-63
2022/03/12 00:54:56;;;;;;;5.85;2.30;;;27.90;99.10;;;;;;5026443;28;20029;-69
2022/03/12 00:57:23;;;;;;;3.53;1.45;;;27.60;99.30;;;;;;5008220;28;20037;-66
2022/03/12 00:59:50;;;;;;;4.30;1.55;;;27.20;99.10;;;;;;5026543;28;20025;-66
2022/03/12 01:02:17;;;;;;;7.30;1.40;;;27.10;99.80;;;;;;5024544;28;20029;-65
2022/03/12 01:04:45;;;;;;;4.88;1.70;;;27.00;99.90;;;;;;5022713;28;20119;-62
2022/03/12 01:07:12;;;;;;;4.30;1.73;;;26.90;99.90;;;;;;5022717;28;20115;-64
2022/03/12 01:09:40;;;;;;;5.15;1.50;;;26.90;99.90;;;;;;5023250;28;20045;-68
2022/03/12 01:12:08;;;;;;;5.88;1.30;;;27.00;99.90;;;;;;5028134;28;20455;-62
2022/03/12 01:14:38;;;;;;;5.40;1.80;;;27.00;99.50;;;;;;5025857;28;20420;-67
2022/03/12 01:17:07;;;;;;;3.50;1.40;;;26.90;99.90;;;;;;5024264;28;20105;-62
2022/03/12 01:19:38;;;;;;;3.03;1.30;;;26.90;99.90;;;;;;5024612;28;20037;-60
2022/03/12 01:22:06;;;;;;;4.38;2.25;;;26.60;99.70;;;;;;5021582;28;20033;-60
2022/03/12 01:24:34;;;;;;;3.85;1.30;;;26.60;99.90;;;;;;5023536;28;20480;-62
2022/03/12 01:27:01;;;;;;;3.72;1.48;;;26.60;99.90;;;;;;5024014;28;20033;-61
2022/03/12 01:29:28;;;;;;;11.75;3.28;;;26.70;99.90;;;;;;5023829;28;20344;-62
2022/03/12 01:31:55;;;;;;;3.95;1.42;;;26.70;99.90;;;;;;5025079;28;20064;-64
2022/03/12 01:34:22;;;;;;;5.35;1.98;;;26.70;99.10;;;;;;5026111;28;20392;-65
2022/03/12 01:36:50;;;;;;;35.22;12.80;;;26.60;99.90;;;;;;5027160;28;20111;-64
2022/03/12 01:39:17;;;;;;;6.45;2.40;;;26.50;99.90;;;;;;5022380;28;20499;-67
2022/03/12 01:41:44;;;;;;;8.35;2.00;;;26.40;99.90;;;;;;5026344;28;20108;-66
2022/03/12 01:44:14;;;;;;;2.42;1.17;;;26.30;99.90;;;;;;5027435;28;20476;-65
2022/03/12 01:46:46;;;;;;;3.10;1.33;;;26.30;99.90;;;;;;5023787;28;20025;-68
2022/03/12 01:49:18;;;;;;;3.92;1.58;;;26.20;99.90;;;;;;5023876;28;20075;-68
2022/03/12 01:51:47;;;;;;;;;;;26.10;99.90;;;;;;5023898;28;20033;-66
2022/03/12 01:54:28;;;;;;;5.72;1.55;;;26.00;99.90;;;;;;5023642;28;20314;-61
2022/03/12 01:56:56;;;;;;;5.15;0.95;;;26.10;99.90;;;;;;5024162;28;20029;-61
2022/03/12 01:59:24;;;;;;;2.55;1.20;;;26.20;99.70;;;;;;5002493;28;20033;-64
2022/03/12 02:01:52;;;;;;;4.35;1.25;;;26.00;99.90;;;;;;5023299;28;20033;-65
2022/03/12 02:04:20;;;;;;;4.05;0.88;;;26.00;99.90;;;;;;5019897;28;20033;-60
2022/03/12 02:06:48;;;;;;;4.80;1.20;;;26.00;99.90;;;;;;5018123;28;20083;-66
2022/03/12 02:09:19;;;;;;;5.43;1.00;;;25.90;99.90;;;;;;5019537;28;20112;-65
2022/03/12 02:11:50;;;;;;;3.13;1.27;;;26.00;99.90;;;;;;5020478;28;20071;-68
2022/03/12 02:14:23;;;;;;;5.53;1.58;;;26.20;99.90;;;;;;5019534;28;20125;-60
2022/03/12 02:16:53;;;;;;;3.50;1.05;;;26.30;99.90;;;;;;5019502;28;20034;-68
2022/03/12 02:19:22;;;;;;;5.60;1.20;;;26.20;99.80;;;;;;5018312;28;20029;-66
2022/03/12 02:21:55;;;;;;;4.05;1.20;;;26.20;99.90;;;;;;5015345;28;20116;-68
2022/03/12 02:24:25;;;;;;;2.50;0.80;;;26.50;99.80;;;;;;5019873;28;20024;-65
2022/03/12 02:26:53;;;;;;;2.50;1.00;;;26.70;99.60;;;;;;5001712;28;20041;-64
2022/03/12 02:29:22;;;;;;;41.63;17.50;;;26.80;98.80;;;;;;5018038;28;20033;-67
2022/03/12 02:32:10;;;;;;;38.13;21.88;;;26.60;99.30;;;;;;5019688;28;20021;-61
2022/03/12 02:34:47;;;;;;;11.23;5.28;;;26.50;99.90;;;;;;5018139;28;20037;-61
2022/03/12 02:37:28;;;;;;;5.05;2.50;;;26.80;99.50;;;;;;5017665;28;20049;-61
2022/03/12 02:39:56;;;;;;;5.80;3.28;;;27.70;97.90;;;;;;5018895;28;20534;-61
2022/03/12 02:42:24;;;;;;;6.95;5.05;;;28.60;97.80;;;;;;5018684;28;20426;-65
2022/03/12 02:44:54;;;;;;;4.93;2.40;;;29.30;96.50;;;;;;5001321;28;20032;-68
2022/03/12 02:47:26;;;;;;;5.10;1.77;;;29.70;96.30;;;;;;5018663;28;20627;-64
2022/03/12 02:49:53;;;;;;;;;;;30.30;95.60;;;;;;5020070;28;20028;-65
2022/03/12 02:52:22;;;;;;;2.97;1.23;;;30.50;95.20;;;;;;5019431;28;19986;-68
2022/03/12 02:54:50;;;;;;;3.45;1.27;;;30.60;94.20;;;;;;5021133;28;20025;-61
2022/03/12 02:57:21;;;;;;;4.28;1.15;;;31.10;93.90;;;;;;5019609;28;20026;-64
2022/03/12 02:59:50;;;;;;;3.92;1.10;;;31.20;93.30;;;;;;5019712;28;20041;-69
2022/03/12 03:02:18;;;;;;;2.65;0.80;;;31.20;92.60;;;;;;5019518;28;20056;-67
2022/03/12 03:04:46;;;;;;;2.40;0.70;;;31.50;91.80;;;;;;5018934;28;20025;-63
2022/03/12 03:07:13;;;;;;;3.78;0.77;;;31.80;92.10;;;;;;5022247;28;20126;-67
2022/03/12 03:09:40;;;;;;;2.95;0.80;;;32.10;90.80;;;;;;5022118;28;20115;-64
2022/03/12 03:12:10;;;;;;;2.28;0.90;;;31.30;90.00;;;;;;5021995;28;20025;-64
2022/03/12 03:14:42;;;;;;;4.05;0.93;;;31.20;91.30;;;;;;5021810;28;20036;-62
2022/03/12 03:17:12;;;;;;;5.72;2.15;;;31.90;91.00;;;;;;5022976;28;20703;-66
2022/03/12 03:19:40;;;;;;;2.58;1.17;;;31.70;89.90;;;;;;5022175;28;20028;-64
2022/03/12 03:22:08;;;;;;;2.03;0.90;;;31.10;89.80;;;;;;5020656;28;20390;-65
2022/03/12 03:24:36;;;;;;;6.15;1.10;;;30.60;90.60;;;;;;5024453;28;20088;-62
2022/03/12 03:27:03;;;;;;;6.38;1.23;;;30.80;90.20;;;;;;5027593;28;20065;-62
2022/03/12 03:29:33;;;;;;;6.43;1.02;;;30.30;91.10;;;;;;5025032;28;20357;-62
2022/03/12 03:32:03;;;;;;;2.25;0.60;;;29.70;91.60;;;;;;5025178;28;20485;-61
2022/03/12 03:34:32;;;;;;;3.80;0.90;;;29.20;92.40;;;;;;5024943;28;20075;-64
2022/03/12 03:37:00;;;;;;;2.88;1.05;;;28.70;92.60;;;;;;5027740;28;20603;-61
2022/03/12 03:39:27;;;;;;;5.82;1.25;;;28.10;93.50;;;;;;5026897;28;20038;-61
2022/03/12 03:41:55;;;;;;;3.65;1.10;;;27.70;94.00;;;;;;5026356;28;20044;-64
2022/03/12 03:44:27;;;;;;;4.22;1.13;;;27.30;95.80;;;;;;5026297;28;20032;-62
2022/03/12 03:46:54;;;;;;;3.65;1.17;;;26.90;95.40;;;;;;5022587;28;20060;-63
2022/03/12 03:49:22;;;;;;;2.72;1.10;;;26.50;96.30;;;;;;5024802;28;20492;-64
2022/03/12 03:51:49;;;;;;;5.35;1.30;;;26.40;96.50;;;;;;5028609;28;20032;-65
2022/03/12 03:54:16;;;;;;;2.03;0.80;;;26.40;96.60;;;;;;5025233;28;20380;-62
2022/03/12 03:56:43;;;;;;;4.82;0.80;;;25.90;97.00;;;;;;5024520;28;20112;-64
2022/03/12 03:59:11;;;;;;;5.25;0.68;;;25.70;97.60;;;;;;5023995;28;20025;-64
2022/03/12 04:01:41;;;;;;;3.83;0.90;;;25.50;97.80;;;;;;5026593;28;20909;-62
2022/03/12 04:04:12;;;;;;;3.72;1.02;;;25.50;98.50;;;;;;5028152;28;20025;-68
2022/03/12 04:06:40;;;;;;;3.22;0.88;;;25.40;97.80;;;;;;5025897;28;20033;-64
2022/03/12 04:09:08;;;;;;;3.03;0.75;;;25.40;98.40;;;;;;5024343;28;20037;-63
2022/03/12 04:11:35;;;;;;;5.53;1.40;;;25.30;97.70;;;;;;5026871;28;20079;-64
2022/03/12 04:14:05;;;;;;;1.92;0.70;;;25.20;98.30;;;;;;5029219;28;20022;-64
2022/03/12 04:16:33;;;;;;;2.45;0.82;;;25.20;99.10;;;;;;5027409;28;20476;-64
2022/03/12 04:19:03;;;;;;;4.82;0.70;;;25.20;99.10;;;;;;5007695;28;20022;-61
2022/03/12 04:21:30;;;;;;;5.75;0.57;;;25.20;99.20;;;;;;5022544;28;20029;-68
2022/03/12 04:23:57;;;;;;;6.22;1.10;;;25.30;99.20;;;;;;5025295;28;20100;-63
2022/03/12 04:26:24;;;;;;;4.32;1.17;;;25.30;98.90;;;;;;5021634;28;20653;-66
2022/03/12 04:28:51;;;;;;;2.90;0.98;;;25.30;98.60;;;;;;5022139;28;20029;-64
2022/03/12 04:31:18;;;;;;;8.13;4.65;;;25.40;99.00;;;;;;5023632;28;20375;-62
2022/03/12 04:33:45;;;;;;;3.63;1.15;;;25.80;99.10;;;;;;5021361;28;20083;-62
2022/03/12 04:36:15;;;;;;;2.47;0.98;;;26.60;97.60;;;;;;5024000;28;20115;-66
2022/03/12 04:38:42;;;;;;;9.50;1.00;;;27.30;97.00;;;;;;5023021;28;20018;-69
2022/03/12 04:41:12;;;;;;;4.65;2.08;;;27.20;97.60;;;;;;5020178;28;20030;-68
2022/03/12 04:43:39;;;;;;;3.40;2.00;;;27.50;97.00;;;;;;5020136;28;20033;-66
2022/03/12 04:46:06;;;;;;;4.53;2.10;;;27.30;97.10;;;;;;5022071;28;20022;-65
2022/03/12 04:48:33;;;;;;;2.55;1.20;;;27.50;96.60;;;;;;5022257;28;20036;-69
2022/03/12 04:51:00;;;;;;;2.83;1.02;;;27.90;96.00;;;;;;5020834;28;20017;-69
2022/03/12 04:53:28;;;;;;;3.85;1.10;;;28.50;95.20;;;;;;5020463;28;20037;-69
2022/03/12 04:55:56;;;;;;;2.08;0.68;;;28.90;95.50;;;;;;5020626;28;20400;-62
2022/03/12 04:58:23;;;;;;;3.97;1.23;;;29.20;94.80;;;;;;5020993;28;20438;-63
2022/03/12 05:00:50;;;;;;;5.10;1.40;;;29.30;94.00;;;;;;5023004;28;20104;-65
2022/03/12 05:03:22;;;;;;;2.08;0.80;;;29.70;94.10;;;;;;5022630;28;20075;-66
2022/03/12 05:05:51;;;;;;;2.83;1.00;;;30.00;93.10;;;;;;5024223;28;20026;-67
2022/03/12 05:08:23;;;;;;;2.63;0.63;;;29.90;92.90;;;;;;5022398;28;20141;-64
2022/03/12 05:10:52;;;;;;;3.90;0.95;;;30.00;92.20;;;;;;5022970;28;20031;-63
2022/03/12 05:13:22;;;;;;;4.00;1.13;;;30.10;91.90;;;;;;5022963;28;20040;-67
2022/03/12 05:15:55;;;;;;;3.13;0.70;;;30.10;92.10;;;;;;5020434;28;20065;-62
2022/03/12 05:18:23;;;;;;;3.13;1.23;;;30.30;90.70;;;;;;5019894;28;20029;-66
2022/03/12 05:20:51;;;;;;;3.78;0.70;;;30.30;92.20;;;;;;5018459;28;20344;-67
2022/03/12 05:23:19;;;;;;;3.50;0.90;;;30.70;91.00;;;;;;5021087;28;20112;-62
2022/03/12 05:25:48;;;;;;;2.72;1.02;;;30.80;90.00;;;;;;5020584;28;20026;-68
2022/03/12 05:28:23;;;;;;;2.00;0.75;;;31.10;89.70;;;;;;5018709;28;20447;-63
2022/03/12 05:30:57;;;;;;;3.28;1.10;;;31.20;89.10;;;;;;5020931;28;20035;-63
2022/03/12 05:33:25;;;;;;;4.32;0.88;;;31.30;87.70;;;;;;5019343;28;20059;-67
2022/03/12 05:35:53;;;;;;;1.30;0.65;;;31.50;90.60;;;;;;5021830;28;20034;-66
2022/03/12 05:38:22;;;;;;;3.33;1.00;;;31.30;89.20;;;;;;5022205;28;20045;-65
2022/03/12 05:40:50;;;;;;;3.03;0.90;;;31.40;87.90;;;;;;5024168;28;20033;-64
2022/03/12 05:43:18;;;;;;;3.60;1.00;;;31.10;88.60;;;;;;5023226;28;20025;-68
2022/03/12 05:45:48;;;;;;;2.72;1.60;;;30.40;87.50;;;;;;5023054;28;20083;-67
2022/03/12 05:48:17;;;;;;;3.58;1.17;;;29.70;90.10;;;;;;5023954;28;20053;-65
2022/03/12 05:50:46;;;;;;;1.35;0.68;;;29.20;91.00;;;;;;5024907;28;20044;-64
2022/03/12 05:53:17;;;;;;;2.70;0.80;;;28.70;91.40;;;;;;5024322;28;20036;-67
2022/03/12 05:55:47;;;;;;;5.43;1.95;;;28.20;91.80;;;;;;5025752;28;20182;-67
2022/03/12 05:58:17;;;;;;;6.63;1.45;;;27.70;92.90;;;;;;5025878;28;20043;-65
2022/03/12 06:00:44;;;;;;;6.30;4.35;;;27.40;93.30;;;;;;5024985;28;20029;-67
2022/03/12 06:03:11;;;;;;;10.00;1.65;;;27.00;94.20;;;;;;5024550;28;20045;-65
2022/03/12 06:05:43;;;;;;;3.95;1.33;;;26.60;95.30;;;;;;5023747;28;20085;-65
2022/03/12 06:08:21;;;;;;;5.68;1.10;;;26.50;95.20;;;;;;5025003;28;20595;-65
2022/03/12 06:10:54;;;;;;;3.00;0.90;;;26.30;95.70;;;;;;5024848;28;20034;-64
2022/03/12 06:13:23;;;;;;;2.15;0.90;;;26.50;95.50;;;;;;5025862;28;20646;-65
2022/03/12 06:16:02;;;;;;;4.13;1.40;;;27.00;95.80;;;;;;5019214;28;20673;-68
2022/03/12 06:18:35;;;;;;;4.22;1.20;;;27.40;95.20;;;;;;5019949;28;20061;-67
2022/03/12 06:21:06;;;;;;;4.47;1.08;;;27.80;94.80;;;;;;5024761;28;20036;-68
2022/03/12 06:23:34;;;;;;;3.37;1.43;;;28.20;94.20;;;;;;5024126;28;20075;-65
2022/03/12 06:26:13;;;;;;;2.92;0.98;;;28.60;94.30;;;;;;5024010;28;20022;-65
2022/03/12 06:28:41;;;;;;;3.15;0.90;;;29.00;93.30;;;;;;5023153;28;20469;-65
2022/03/12 06:31:08;;;;;;;5.75;1.40;;;28.50;93.10;;;;;;5019038;28;20074;-66
2022/03/12 06:33:35;;;;;;;3.22;0.98;;;28.10;94.30;;;;;;5021297;28;20025;-66
2022/03/12 06:36:02;;;;;;;2.20;0.68;;;27.60;94.50;;;;;;5023313;28;20025;-62
2022/03/12 06:38:31;;;;;;;3.63;1.00;;;27.20;94.50;;;;;;4977221;28;20524;-68
2022/03/12 06:40:58;;;;;;;2.42;1.00;;;26.80;94.80;;;;;;4984290;28;20026;-67
2022/03/12 06:43:30;;;;;;;3.35;1.00;;;26.50;96.00;;;;;;4984377;28;20385;-63
2022/03/12 06:45:59;;;;;;;4.03;1.00;;;26.30;95.80;;;;;;4980977;28;20022;-64
2022/03/12 06:48:26;;;;;;;4.10;0.98;;;26.00;96.20;;;;;;4985146;28;20026;-64
2022/03/12 06:50:53;;;;;;;1.15;0.73;;;26.00;96.40;;;;;;4982792;28;20492;-68
2022/03/12 06:53:20;;;;;;;1.48;0.55;;;25.80;97.10;;;;;;4983531;28;20397;-68
2022/03/12 06:55:47;;;;;;;3.95;0.93;;;25.60;97.70;;;;;;4979867;28;20047;-65
2022/03/12 06:58:14;;;;;;;3.75;1.15;;;26.00;97.10;;;;;;4984008;28;21340;-65
2022/03/12 07:00:41;;;;;;;4.53;0.73;;;26.30;96.70;;;;;;4984470;28;20022;-66
2022/03/12 07:03:09;;;;;;;2.13;0.70;;;26.20;97.20;;;;;;4987454;28;20049;-68
2022/03/12 07:05:36;;;;;;;4.38;1.02;;;26.00;97.30;;;;;;4987717;28;20018;-67
2022/03/12 07:08:03;;;;;;;2.35;0.80;;;25.60;97.80;;;;;;4983913;28;20099;-65
2022/03/12 07:10:30;;;;;;;1.83;0.90;;;25.50;98.10;;;;;;4973654;28;20115;-66
2022/03/12 07:12:57;;;;;;;2.95;0.57;;;25.40;97.30;;;;;;4982705;28;20038;-69
2022/03/12 07:15:25;;;;;;;2.40;0.77;;;25.10;97.60;;;;;;4988550;28;20030;-67
2022/03/12 07:17:55;;;;;;;2.78;1.00;;;24.80;98.50;;;;;;4988898;28;20022;-63
2022/03/12 07:20:22;;;;;;;2.53;0.75;;;24.70;99.40;;;;;;4985569;28;20120;-69
2022/03/12 07:22:49;;;;;;;4.15;0.98;;;24.60;99.20;;;;;;4986034;28;20049;-63
2022/03/12 07:25:17;;;;;;;3.20;0.77;;;24.50;99.80;;;;;;4985591;28;20030;-65
2022/03/12 07:27:45;;;;;;;4.43;1.10;;;24.30;99.50;;;;;;4984937;28;20034;-67
2022/03/12 07:30:14;;;;;;;3.80;1.02;;;24.10;99.90;;;;;;4985232;28;20038;-69
2022/03/12 07:32:44;;;;;;;2.17;0.68;;;23.90;99.90;;;;;;4987521;28;20036;-67
2022/03/12 07:35:12;;;;;;;4.50;1.02;;;23.80;99.90;;;;;;4986644;28;20093;-62
2022/03/12 07:37:40;;;;;;;2.88;0.73;;;23.70;99.90;;;;;;5012102;28;20496;-67
2022/03/12 07:40:09;;;;;;;2.92;1.98;;;23.50;99.90;;;;;;5025486;28;20107;-66
2022/03/12 07:42:37;;;;;;;3.15;1.08;;;23.40;99.90;;;;;;5008799;28;20041;-65
2022/03/12 07:45:05;;;;;;;5.15;1.10;;;23.20;99.90;;;;;;5024748;28;20030;-62
2022/03/12 07:47:33;;;;;;;2.03;0.82;;;23.20;99.90;;;;;;5025540;28;20044;-68
2022/03/12 07:50:00;;;;;;;1.98;0.80;;;23.10;99.90;;;;;;5025782;28;20099;-65
2022/03/12 07:52:28;;;;;;;3.08;1.35;;;23.00;99.90;;;;;;5026076;28;20117;-67
2022/03/12 07:54:55;;;;;;;2.85;1.63;;;22.90;99.90;;;;;;5024013;28;20067;-68
2022/03/12 07:57:26;;;;;;;3.60;0.85;;;22.80;99.90;;;;;;5025976;28;20021;-65
2022/03/12 07:59:54;;;;;;;2.00;0.80;;;22.80;99.90;;;;;;5026301;28;20021;-63
2022/03/12 08:02:21;;;;;;;4.00;1.05;;;22.60;99.90;;;;;;5024559;28;20076;-62
2022/03/12 08:04:48;;;;;;;2.25;0.60;;;22.60;99.90;;;;;;5024147;28;20095;-63
2022/03/12 08:07:15;;;;;;;1.85;0.50;;;22.60;99.90;;;;;;5023624;28;20391;-66
2022/03/12 08:09:42;;;;;;;2.63;0.60;;;22.50;99.90;;;;;;5024809;28;20087;-68
2022/03/12 08:12:09;;;;;;;1.90;0.80;;;22.40;99.90;;;;;;5024752;28;20033;-67
2022/03/12 08:14:37;;;;;;;1.73;0.68;;;22.20;99.90;;;;;;5022802;28;20073;-65
2022/03/12 08:17:05;;;;;;;1.15;0.52;;;22.10;99.90;;;;;;5023523;28;20041;-62
2022/03/12 08:19:32;;;;;;;2.67;0.60;;;22.10;99.90;;;;;;5023681;28;20357;-69
2022/03/12 08:22:03;;;;;;;1.92;0.60;;;22.00;99.90;;;;;;5020795;28;20018;-65
2022/03/12 08:24:31;;;;;;;1.63;0.65;;;22.00;99.90;;;;;;5020629;28;20142;-66
2022/03/12 08:26:59;;;;;;;3.75;1.38;;;21.90;99.90;;;;;;5022405;28;20096;-65
2022/03/12 08:29:26;;;;;;;1.35;0.88;;;21.90;99.90;;;;;;4672065;28;10000378;-65
2022/03/12 08:31:53;;;;;;;2.53;0.60;;;21.70;99.90;;;;;;5018427;28;20037;-70
2022/03/12 08:34:20;;;;;;;1.85;0.93;;;21.60;99.90;;;;;;5018446;28;20056;-64
2022/03/12 08:36:47;;;;;;;2.10;0.85;;;21.70;99.90;;;;;;5017276;28;20132;-64
2022/03/12 08:39:15;;;;;;;1.80;0.75;;;21.50;99.90;;;;;;5018969;28;20029;-68
2022/03/12 08:41:43;;;;;;;1.55;0.77;;;21.40;99.90;;;;;;5016625;28;20140;-66
2022/03/12 08:44:10;;;;;;;1.20;0.57;;;21.20;99.90;;;;;;5016486;28;20040;-65
2022/03/12 08:46:42;;;;;;;2.13;0.75;;;21.20;99.90;;;;;;5017790;28;20108;-62
2022/03/12 08:49:09;;;;;;;3.53;0.97;;;21.30;99.90;;;;;;5017949;28;20492;-64
2022/03/12 08:51:38;;;;;;;2.90;1.08;;;21.20;99.90;;;;;;5017749;28;20033;-62
2022/03/12 08:54:06;;;;;;;1.98;0.70;;;21.20;99.90;;;;;;5019215;28;20542;-68
2022/03/12 08:56:33;;;;;;;1.00;0.47;;;21.20;99.90;;;;;;5019033;28;20080;-68
2022/03/12 08:59:00;;;;;;;2.40;0.70;;;21.20;99.90;;;;;;5019565;28;20465;-63
2022/03/12 09:01:27;;;;;;;2.60;1.00;;;21.10;99.90;;;;;;5017438;28;20029;-62
2022/03/12 09:03:55;;;;;;;2.08;0.88;;;21.10;99.90;;;;;;5017666;28;20117;-62
2022/03/12 09:06:23;;;;;;;3.38;1.38;;;21.00;99.90;;;;;;5018309;28;20030;-63
2022/03/12 09:08:50;;;;;;;5.00;1.00;;;21.00;99.90;;;;;;5019034;28;20280;-66
2022/03/12 09:11:17;;;;;;;3.58;1.23;;;21.00;99.90;;;;;;5019170;28;20040;-66
2022/03/12 09:13:45;;;;;;;2.20;1.30;;;20.90;99.90;;;;;;5017476;28;20034;-63
2022/03/12 09:16:14;;;;;;;2.90;1.20;;;20.90;99.90;;;;;;5015517;28;20097;-65
2022/03/12 09:18:44;;;;;;;2.33;1.00;;;20.80;99.90;;;;;;5017620;28;20467;-65
2022/03/12 09:21:12;;;;;;;1.65;0.70;;;20.80;99.90;;;;;;5016591;28;20357;-64
2022/03/12 09:23:39;;;;;;;2.60;0.98;;;20.70;99.90;;;;;;5015821;28;20471;-66
2022/03/12 09:26:06;;;;;;;1.15;0.90;;;20.70;99.90;;;;;;5017259;28;20029;-63
2022/03/12 09:28:33;;;;;;;3.22;0.65;;;20.60;99.90;;;;;;5016077;28;20022;-69
2022/03/12 09:31:00;;;;;;;4.35;1.08;;;20.70;99.90;;;;;;5018601;28;20539;-65
2022/03/12 09:33:28;;;;;;;7.53;1.73;;;20.60;99.90;;;;;;5018876;28;20112;-67
2022/03/12 09:35:55;;;;;;;12.95;8.13;;;20.50;99.90;;;;;;5017499;28;20422;-64
2022/03/12 09:38:22;;;;;;;6.03;3.50;;;20.30;99.90;;;;;;5017224;28;20045;-65
2022/03/12 09:40:49;;;;;;;2.15;1.38;;;20.20;99.90;;;;;;5018549;28;20392;-67
2022/03/12 09:43:16;;;;;;;2.13;0.95;;;20.10;99.90;;;;;;5020172;28;20029;-65
2022/03/12 09:45:43;;;;;;;2.47;1.30;;;20.00;99.90;;;;;;5019406;28;20091;-65
2022/03/12 09:48:11;;;;;;;2.63;1.13;;;20.00;99.90;;;;;;5020111;28;20033;-63
2022/03/12 09:50:38;;;;;;;3.72;1.45;;;19.90;99.90;;;;;;5019597;28;20041;-66
2022/03/12 09:53:06;;;;;;;3.53;1.42;;;19.90;99.90;;;;;;5020692;28;20047;-64
2022/03/12 09:55:34;;;;;;;4.13;1.45;;;19.90;99.90;;;;;;5008750;28;20033;-66
2022/03/12 09:58:01;;;;;;;4.55;1.73;;;19.90;99.90;;;;;;5016335;28;20028;-67
2022/03/12 10:00:28;;;;;;;2.97;1.83;;;19.80;99.90;;;;;;5017526;28;20426;-68
2022/03/12 10:02:55;;;;;;;2.47;1.20;;;19.80;99.90;;;;;;5017038;28;20026;-68
2022/03/12 10:05:22;;;;;;;3.28;2.10;;;19.70;99.90;;;;;;5017907;28;20060;-67
2022/03/12 10:07:49;;;;;;;2.65;1.20;;;19.50;99.90;;;;;;5018774;28;20492;-66
2022/03/12 10:10:22;;;;;;;3.65;1.30;;;19.50;99.90;;;;;;5016816;28;20030;-69
2022/03/12 10:12:50;;;;;;;2.55;1.17;;;19.50;99.90;;;;;;5014571;28;20034;-67
2022/03/12 10:15:18;;;;;;;3.00;1.38;;;19.60;99.90;;;;;;5014565;28;20048;-67
2022/03/12 10:17:47;;;;;;;3.28;1.30;;;19.70;99.90;;;;;;5013027;28;20473;-63
2022/03/12 10:20:14;;;;;;;4.32;1.33;;;19.70;99.90;;;;;;5013891;28;20030;-63
2022/03/12 10:22:43;;;;;;;2.13;1.27;;;19.60;99.90;;;;;;5013024;28;20406;-63
2022/03/12 10:25:12;;;;;;;3.33;1.58;;;19.60;99.90;;;;;;5018759;28;20386;-63
2022/03/12 10:27:39;;;;;;;3.10;1.40;;;19.70;99.90;;;;;;5015231;28;20140;-63
2022/03/12 10:30:07;;;;;;;5.22;1.60;;;19.50;99.90;;;;;;5021366;28;20083;-63
2022/03/12 10:32:45;;;;;;;6.03;1.40;;;19.30;99.90;;;;;;5018130;28;20025;-67
2022/03/12 10:35:18;;;;;;;2.40;1.33;;;19.20;99.90;;;;;;5017426;28;20132;-68
2022/03/12 10:37:46;;;;;;;2.95;1.40;;;19.30;99.90;;;;;;5029841;23;20054;-66
2022/03/12 10:40:20;;;;;;;2.55;1.30;;;19.30;99.90;;;;;;5021783;28;20025;-68
2022/03/12 10:42:49;;;;;;;3.85;1.38;;;19.20;99.90;;;;;;5019063;28;20440;-67
2022/03/12 10:45:22;;;;;;;3.42;1.20;;;19.20;99.90;;;;;;5017209;28;20033;-65
2022/03/12 10:47:49;;;;;;;;;;;19.10;99.90;;;;;;5018147;28;20045;-64
2022/03/12 10:50:29;;;;;;;3.85;1.50;;;19.10;99.90;;;;;;5020030;28;19913;-65
2022/03/12 10:52:58;;;;;;;1.58;0.98;;;19.10;99.90;;;;;;5004908;28;20029;-68
2022/03/12 10:55:33;;;;;;;2.22;1.25;;;18.90;99.90;;;;;;5021098;28;20034;-62
2022/03/12 10:58:09;;;;;;;8.18;4.22;;;18.80;99.90;;;;;;5015271;28;20139;-63
2022/03/12 11:01:02;;;;;;;8.88;2.45;;;18.70;99.90;;;;;;5017481;28;20350;-65
2022/03/12 11:03:29;;;;;;;;;;;18.60;99.90;;;;;;5016799;28;20025;-64
2022/03/12 11:05:57;;;;;;;3.80;1.38;;;18.50;99.90;;;;;;5021473;28;19913;-65
2022/03/12 11:08:29;;;;;;;3.25;1.25;;;18.50;99.90;;;;;;5016970;28;20033;-62
2022/03/12 11:10:59;;;;;;;6.37;1.80;;;18.70;99.90;;;;;;5008176;28;20101;-68
2022/03/12 11:13:52;;;;;;;2.65;1.45;;;18.80;99.90;;;;;;5019235;28;20105;-68
2022/03/12 11:16:24;;;;;;;;;;;18.90;99.90;;;;;;5020017;28;20168;-65
2022/03/12 11:18:52;;;;;;;3.90;1.40;;;18.70;99.90;;;;;;5016920;28;19967;-62
2022/03/12 11:21:52;;;;;;;4.53;2.13;;;18.50;99.90;;;;;;5015710;28;20128;-62
2022/03/12 11:24:24;;;;;;;3.67;1.85;;;18.50;99.90;;;;;;5019146;28;20080;-67
2022/03/12 11:26:58;;;;;;;6.13;1.73;;;18.60;99.90;;;;;;5022092;28;20022;-65
2022/03/12 11:29:27;;;;;;;5.60;1.58;;;18.50;99.90;;;;;;5017876;28;20068;-63
2022/03/12 11:31:58;;;;;;;4.95;1.80;;;18.50;99.90;;;;;;5021026;28;20025;-63
2022/03/12 11:34:39;;;;;;;3.60;1.77;;;18.40;99.90;;;;;;5016056;28;20018;-63
2022/03/12 11:37:18;;;;;;;4.38;2.42;;;18.40;99.90;;;;;;5020956;28;20045;-62
2022/03/12 11:39:49;;;;;;;6.20;4.40;;;18.30;99.90;;;;;;5020329;28;20047;-66
2022/03/12 11:42:18;;;;;;;6.57;4.68;;;18.10;99.90;;;;;;5019508;28;20546;-65
2022/03/12 11:44:51;;;;;;;8.75;5.90;;;18.20;99.90;;;;;;5020681;28;20282;-63
2022/03/12 11:47:20;;;;;;;14.70;9.52;;;18.30;99.90;;;;;;5022922;28;20121;-63
2022/03/12 11:49:48;;;;;;;15.27;11.95;;;18.40;99.90;;;;;;5022479;28;20021;-67
2022/03/12 11:52:16;;;;;;;17.77;13.80;;;18.50;99.90;;;;;;5018725;28;20048;-67
2022/03/12 11:54:45;;;;;;;20.95;17.55;;;18.50;99.90;;;;;;5018269;28;20440;-66
2022/03/12 11:57:22;;;;;;;24.70;17.55;;;18.50;99.90;;;;;;5010024;28;20471;-65
2022/03/12 11:59:50;;;;;;;27.40;20.45;;;18.50;99.90;;;;;;5020979;28;20018;-64
2022/03/12 12:02:34;;;;;;;28.45;22.27;;;18.30;99.90;;;;;;5019767;28;20025;-63
2022/03/12 12:05:04;;;;;;;23.27;19.88;;;18.20;99.90;;;;;;5021010;28;20521;-65
2022/03/12 12:07:38;;;;;;;27.33;20.98;;;18.20;99.90;;;;;;5016703;28;20030;-64
2022/03/12 12:10:08;;;;;;;28.10;22.05;;;18.10;99.90;;;;;;5020182;28;20615;-63
2022/03/12 12:12:36;;;;;;;27.85;21.73;;;18.00;99.90;;;;;;5022858;28;20025;-63
2022/03/12 12:15:07;;;;;;;24.58;19.90;;;17.80;99.90;;;;;;5010416;28;20211;-68
2022/03/12 12:17:34;;;;;;;22.30;16.70;;;17.70;99.90;;;;;;5022260;28;20363;-64
2022/03/12 12:20:02;;;;;;;21.58;16.17;;;17.90;99.90;;;;;;5016611;28;20030;-64
2022/03/12 12:22:30;;;;;;;21.90;16.23;;;18.00;99.90;;;;;;5020461;28;20076;-64
2022/03/12 12:25:01;;;;;;;18.88;15.27;;;18.10;99.90;;;;;;5019448;28;20029;-62
2022/03/12 12:27:43;;;;;;;19.52;15.48;;;18.00;99.90;;;;;;5019537;28;20056;-69
2022/03/12 12:30:16;;;;;;;17.60;14.17;;;18.00;99.90;;;;;;5018750;28;20347;-69
2022/03/12 12:32:49;;;;;;;18.80;12.68;;;18.00;99.90;;;;;;5019173;28;20088;-66
2022/03/12 12:35:21;;;;;;;17.42;12.70;;;18.00;99.90;;;;;;5019945;28;20072;-65
2022/03/12 12:38:04;;;;;;;;;;;18.00;99.90;;;;;;5019480;28;20042;-60
2022/03/12 12:40:35;;;;;;;17.35;10.80;;;18.00;99.90;;;;;;5018897;28;19909;-65
2022/03/12 12:43:09;;;;;;;11.50;8.75;;;17.80;99.90;;;;;;5020285;28;20040;-64
2022/03/12 12:45:53;;;;;;;12.52;7.47;;;17.70;99.90;;;;;;5020022;28;20018;-65
2022/03/12 12:48:42;;;;;;;9.45;7.20;;;17.60;99.90;;;;;;5018646;28;20032;-67
2022/03/12 12:51:27;;;;;;;12.48;6.95;;;17.50;99.90;;;;;;5019066;28;20125;-61
2022/03/12 12:53:57;;;;;;;9.07;6.78;;;17.50;99.90;;;;;;5020606;28;20483;-62
2022/03/12 12:56:31;;;;;;;10.52;6.25;;;17.50;99.90;;;;;;5020980;28;20034;-63